Time;durP1;ratioP1;P1;durP2;ratioP2;P2;SDS_P1;SDS_P2;PMS_P1;PMS_P2;Temp;Humidity;BMP_temperature;BMP_pressure;BME280_temperature;BME280_humidity;BME280_pressure;Samples;Min_cycle;Max_cycle;Signal;HPM_P1;HPM_P2
2022/05/23 00:01:13;;;;;;;1.90;1.02;;;19.80;74.00;;;;;;6179330;28;20157;-84
2022/05/23 00:04:15;;;;;;;2.50;0.70;;;19.70;74.20;;;;;;6178302;28;20524;-85
2022/05/23 00:07:23;;;;;;;0.95;0.50;;;19.70;74.70;;;;;;6177971;28;20573;-83
2022/05/23 00:10:26;;;;;;;3.30;0.50;;;19.60;75.70;;;;;;6178394;28;20061;-84
2022/05/23 00:13:28;;;;;;;1.10;0.82;;;19.50;76.20;;;;;;6179607;28;20132;-83
2022/05/23 00:16:34;;;;;;;1.63;0.57;;;19.30;76.60;;;;;;6239111;23;20045;-81
2022/05/23 00:19:36;;;;;;;7.35;0.73;;;19.20;77.10;;;;;;6225805;28;20133;-82
2022/05/23 00:22:38;;;;;;;4.50;1.00;;;19.20;77.50;;;;;;6225912;28;20050;-82
2022/05/23 00:25:41;;;;;;;1.83;0.60;;;19.10;77.80;;;;;;6213808;28;20042;-82
2022/05/23 00:28:43;;;;;;;1.48;0.68;;;19.00;78.10;;;;;;6202132;28;20196;-82
2022/05/23 00:35:19;;;;;;;3.45;0.85;;;18.90;78.90;;;;;;6201428;28;20042;-81
2022/05/23 00:38:21;;;;;;;4.85;0.88;;;18.90;79.30;;;;;;6200330;28;20676;-82
2022/05/23 00:44:55;;;;;;;1.95;0.88;;;18.70;79.50;;;;;;6202299;28;20505;-82
2022/05/23 00:47:56;;;;;;;1.02;0.50;;;18.60;79.80;;;;;;6201204;28;20608;-81
2022/05/23 00:51:00;;;;;;;6.47;1.02;;;18.60;80.00;;;;;;6201275;28;20046;-83
2022/05/23 00:54:04;;;;;;;0.68;0.50;;;18.60;80.20;;;;;;6201829;28;20053;-82
2022/05/23 00:57:10;;;;;;;2.50;0.77;;;18.60;80.10;;;;;;6201233;28;20519;-81
2022/05/23 01:00:13;;;;;;;3.90;0.88;;;18.60;80.50;;;;;;6202474;28;20125;-81
2022/05/23 01:03:17;;;;;;;2.53;0.80;;;18.60;80.70;;;;;;6203525;28;20058;-81
2022/05/23 01:06:19;;;;;;;1.45;0.85;;;18.50;80.90;;;;;;6202065;28;20042;-82
2022/05/23 01:09:23;;;;;;;2.55;0.70;;;18.50;81.30;;;;;;6200842;28;20046;-82
2022/05/23 01:12:28;;;;;;;1.73;0.60;;;18.40;81.40;;;;;;6200384;28;20046;-82
2022/05/23 01:15:32;;;;;;;2.13;0.98;;;18.40;81.50;;;;;;6200608;28;20042;-82
2022/05/23 01:18:34;;;;;;;4.32;0.93;;;18.40;81.60;;;;;;6200400;28;20046;-83
2022/05/23 01:21:47;;;;;;;1.70;0.68;;;18.40;81.70;;;;;;6200637;28;20524;-82
2022/05/23 01:24:58;;;;;;;1.80;1.00;;;18.40;82.00;;;;;;6200941;28;20057;-83
2022/05/23 01:28:01;;;;;;;1.05;0.63;;;18.30;81.80;;;;;;6200931;28;20042;-83
2022/05/23 01:31:03;;;;;;;3.97;0.93;;;18.30;81.80;;;;;;6200482;28;20061;-83
2022/05/23 01:34:05;;;;;;;4.35;0.90;;;18.30;82.00;;;;;;6199903;28;20526;-82
2022/05/23 01:37:07;;;;;;;2.25;1.10;;;18.30;82.20;;;;;;6199857;28;20498;-81
2022/05/23 01:40:12;;;;;;;3.50;0.98;;;18.30;82.00;;;;;;6199688;28;20051;-83
2022/05/23 01:43:15;;;;;;;3.15;0.90;;;18.40;82.00;;;;;;6199033;28;20172;-83
2022/05/23 01:46:17;;;;;;;4.82;1.42;;;18.40;81.90;;;;;;6198479;28;20042;-81
2022/05/23 01:49:19;;;;;;;4.10;0.77;;;18.40;81.70;;;;;;6198506;28;20046;-81
2022/05/23 01:52:21;;;;;;;1.98;0.60;;;18.40;81.60;;;;;;6197918;28;20050;-81
2022/05/23 01:55:23;;;;;;;3.67;1.00;;;18.50;82.10;;;;;;6198481;28;20133;-81
2022/05/23 02:01:45;;;;;;;1.65;0.70;;;18.40;82.70;;;;;;6198500;28;20478;-81
2022/05/23 02:04:47;;;;;;;1.20;0.60;;;18.40;83.00;;;;;;6198807;28;20078;-81
2022/05/23 02:07:49;;;;;;;1.85;0.80;;;18.40;82.90;;;;;;6198093;28;20053;-81
2022/05/23 02:10:50;;;;;;;1.67;0.90;;;18.30;83.20;;;;;;6198176;28;20057;-81
2022/05/23 02:13:53;;;;;;;0.82;0.60;;;18.30;83.40;;;;;;6197990;28;20521;-81
2022/05/23 02:16:55;;;;;;;1.58;0.80;;;18.20;83.80;;;;;;6198119;28;20061;-81
2022/05/23 02:19:57;;;;;;;2.45;1.02;;;18.20;83.90;;;;;;6197571;28;20065;-80
2022/05/23 02:22:59;;;;;;;2.15;0.90;;;18.20;84.20;;;;;;6197946;28;20057;-80
2022/05/23 02:26:01;;;;;;;2.30;1.02;;;18.20;84.00;;;;;;6197829;28;21588;-81
2022/05/23 02:29:05;;;;;;;5.18;0.80;;;18.20;84.40;;;;;;6198378;28;20181;-80
2022/05/23 02:32:08;;;;;;;2.58;1.00;;;18.10;84.60;;;;;;6197896;28;20046;-80
2022/05/23 02:35:10;;;;;;;1.90;0.73;;;18.00;85.10;;;;;;6197666;28;20631;-81
2022/05/23 02:38:12;;;;;;;1.85;0.80;;;18.00;85.50;;;;;;6196631;28;20527;-81
2022/05/23 02:41:13;;;;;;;2.72;1.40;;;18.00;85.50;;;;;;6198682;28;20054;-82
2022/05/23 02:44:17;;;;;;;4.97;1.02;;;18.00;85.30;;;;;;6197899;28;20057;-81
2022/05/23 02:47:18;;;;;;;1.88;0.80;;;18.00;85.20;;;;;;6198529;28;20125;-81
2022/05/23 02:50:20;;;;;;;2.83;1.10;;;18.10;85.40;;;;;;6197885;28;20069;-82
2022/05/23 02:53:22;;;;;;;2.08;0.90;;;18.00;85.40;;;;;;6198371;28;20064;-81
2022/05/23 02:56:24;;;;;;;2.65;1.33;;;18.10;85.50;;;;;;6198163;28;20081;-81
2022/05/23 02:59:27;;;;;;;1.52;0.80;;;18.10;85.30;;;;;;6198027;28;20525;-81
2022/05/23 03:05:50;;;;;;;2.20;1.73;;;18.20;85.20;;;;;;6202241;28;20129;-81
2022/05/23 03:08:52;;;;;;;1.33;0.70;;;18.20;85.30;;;;;;6203622;28;20133;-81
2022/05/23 03:11:54;;;;;;;2.08;0.85;;;18.20;85.50;;;;;;6203058;28;20058;-81
2022/05/23 03:14:57;;;;;;;1.63;0.90;;;18.30;85.30;;;;;;6203130;28;20074;-81
2022/05/23 03:17:59;;;;;;;1.35;1.02;;;18.30;85.50;;;;;;6202331;28;20064;-81
2022/05/23 03:21:03;;;;;;;1.45;0.70;;;18.20;85.80;;;;;;6203325;28;20465;-81
2022/05/23 03:27:25;;;;;;;2.00;0.90;;;18.10;85.50;;;;;;6202467;28;20046;-81
2022/05/23 03:30:29;;;;;;;9.52;1.95;;;18.20;86.10;;;;;;6203001;28;20042;-82
2022/05/23 03:33:31;;;;;;;12.30;2.65;;;18.30;89.00;;;;;;6203201;28;20073;-84
2022/05/23 03:36:33;;;;;;;13.23;3.40;;;18.10;91.70;;;;;;6202481;28;20068;-83
2022/05/23 03:39:38;;;;;;;11.07;3.60;;;17.80;93.20;;;;;;6201792;28;20100;-83
2022/05/23 03:42:40;;;;;;;13.73;3.42;;;17.40;96.40;;;;;;6203467;28;20050;-84
2022/05/23 03:45:44;;;;;;;10.82;3.28;;;17.20;97.20;;;;;;6202421;28;20050;-84
2022/05/23 03:48:45;;;;;;;19.75;3.92;;;16.90;97.30;;;;;;6202507;28;20597;-84
2022/05/23 03:51:47;;;;;;;7.40;4.10;;;16.60;98.20;;;;;;6203526;28;20046;-86
2022/05/23 03:54:49;;;;;;;8.23;4.65;;;16.30;99.40;;;;;;6202408;28;20050;-85
2022/05/23 03:57:51;;;;;;;11.02;4.50;;;16.20;99.80;;;;;;6202159;28;20185;-86
2022/05/23 04:01:03;;;;;;;9.48;4.28;;;16.00;99.90;;;;;;6202474;28;20058;-84
2022/05/23 04:04:05;;;;;;;9.82;5.00;;;15.90;99.90;;;;;;6201873;28;20177;-86
2022/05/23 04:07:08;;;;;;;11.27;5.18;;;15.90;99.90;;;;;;6202509;28;20054;-85
2022/05/23 04:10:13;;;;;;;13.40;5.60;;;15.90;99.90;;;;;;6201383;28;20129;-86
2022/05/23 04:13:15;;;;;;;9.38;5.40;;;15.80;99.90;;;;;;6202493;28;20046;-84
2022/05/23 04:16:18;;;;;;;15.23;6.47;;;15.80;99.90;;;;;;6200893;28;20057;-85
2022/05/23 04:19:20;;;;;;;11.65;6.63;;;15.80;99.90;;;;;;6200941;28;20112;-83
2022/05/23 04:22:22;;;;;;;10.35;6.93;;;15.80;99.90;;;;;;6201142;28;20046;-86
2022/05/23 04:25:23;;;;;;;11.40;6.45;;;15.80;99.90;;;;;;6201852;28;20070;-84
2022/05/23 04:28:25;;;;;;;12.32;6.35;;;15.90;99.90;;;;;;6203554;28;20053;-85
2022/05/23 04:31:29;;;;;;;16.98;6.40;;;15.90;99.90;;;;;;6203663;28;20188;-85
2022/05/23 04:37:51;;;;;;;10.05;6.70;;;16.00;99.90;;;;;;6201515;28;20050;-84
2022/05/23 04:40:53;;;;;;;14.20;6.47;;;16.00;99.90;;;;;;6201438;28;20520;-84
2022/05/23 04:43:56;;;;;;;20.15;8.25;;;16.00;99.90;;;;;;6202519;28;20133;-85
2022/05/23 04:50:18;;;;;;;21.40;6.40;;;16.00;99.90;;;;;;6201014;28;20042;-85
2022/05/23 04:53:20;;;;;;;12.95;6.30;;;16.00;99.90;;;;;;6200960;28;20502;-85
2022/05/23 04:56:22;;;;;;;14.88;7.05;;;15.80;99.90;;;;;;6201825;28;20054;-84
2022/05/23 04:59:24;;;;;;;15.80;7.47;;;15.70;99.90;;;;;;6200577;28;20043;-85
2022/05/23 05:02:27;;;;;;;16.90;7.68;;;15.70;99.90;;;;;;6201152;28;20129;-82
2022/05/23 05:05:30;;;;;;;13.90;6.78;;;15.70;99.90;;;;;;6202595;28;20047;-84
2022/05/23 05:08:32;;;;;;;14.38;6.97;;;15.70;99.90;;;;;;6200422;28;20050;-84
2022/05/23 05:11:34;;;;;;;10.40;6.57;;;15.70;99.90;;;;;;6200566;28;20541;-85
2022/05/23 05:14:36;;;;;;;12.93;8.25;;;15.60;99.90;;;;;;6200647;28;20053;-85
2022/05/23 05:17:39;;;;;;;27.48;9.32;;;15.60;99.90;;;;;;6202012;28;20050;-86
2022/05/23 05:20:41;;;;;;;17.92;8.68;;;15.70;99.90;;;;;;6200506;28;20413;-84
2022/05/23 05:23:43;;;;;;;14.50;7.80;;;15.70;99.90;;;;;;6200217;28;20126;-84
2022/05/23 05:26:44;;;;;;;12.73;7.50;;;15.70;99.90;;;;;;6200822;28;20225;-86
2022/05/23 05:29:46;;;;;;;23.15;7.95;;;15.80;99.90;;;;;;6199029;28;20061;-84
2022/05/23 05:32:54;;;;;;;13.73;7.22;;;15.80;99.90;;;;;;6200325;28;20055;-84
2022/05/23 05:35:58;;;;;;;9.07;6.30;;;15.80;99.90;;;;;;6200171;28;20185;-82
2022/05/23 05:39:03;;;;;;;11.15;6.25;;;15.90;99.90;;;;;;6199386;28;20085;-85
2022/05/23 05:42:11;;;;;;;14.55;6.55;;;16.00;99.90;;;;;;6175258;28;20047;-83
2022/05/23 05:45:18;;;;;;;12.80;5.90;;;16.20;99.90;;;;;;6176102;28;20142;-83
2022/05/23 05:48:21;;;;;;;10.73;5.07;;;16.30;99.90;;;;;;6175187;28;20070;-84
2022/05/23 05:51:25;;;;;;;6.60;4.57;;;16.60;99.90;;;;;;6175769;28;20421;-83
2022/05/23 05:54:28;;;;;;;6.95;4.07;;;16.80;99.90;;;;;;6175327;28;20042;-84
2022/05/23 05:57:31;;;;;;;8.23;3.22;;;16.90;99.90;;;;;;6175831;28;20108;-84
2022/05/23 06:00:33;;;;;;;10.07;3.38;;;16.90;99.90;;;;;;6174754;28;20683;-85
2022/05/23 06:03:36;;;;;;;4.43;2.72;;;16.90;99.90;;;;;;6175233;28;20509;-85
2022/05/23 06:13:16;;;;;;;7.05;3.10;;;17.30;99.90;;;;;;6175508;28;20055;-82
2022/05/23 06:16:18;;;;;;;5.55;2.80;;;17.60;99.90;;;;;;6214965;23;20050;-83
2022/05/23 06:19:21;;;;;;;8.75;3.40;;;17.70;99.90;;;;;;6203743;28;20049;-84
2022/05/23 06:22:23;;;;;;;7.18;3.08;;;18.00;99.90;;;;;;6202766;28;20420;-83
2022/05/23 06:25:25;;;;;;;10.75;3.35;;;18.40;99.90;;;;;;6203315;28;20081;-83
2022/05/23 06:28:27;;;;;;;6.20;3.67;;;18.80;99.90;;;;;;6201130;28;20532;-84
2022/05/23 06:31:29;;;;;;;9.10;3.65;;;19.20;99.90;;;;;;6204803;28;20448;-84
2022/05/23 06:34:32;;;;;;;5.03;3.00;;;19.80;99.90;;;;;;6206496;28;20046;-84
2022/05/23 06:37:34;;;;;;;4.93;2.63;;;20.50;99.90;;;;;;6207818;28;20050;-84
2022/05/23 06:40:36;;;;;;;3.58;2.17;;;21.00;99.90;;;;;;6202413;28;20145;-84
2022/05/23 06:43:40;;;;;;;2.90;2.05;;;21.60;99.90;;;;;;6201374;28;20399;-84
2022/05/23 06:46:42;;;;;;;4.55;1.90;;;21.90;99.80;;;;;;6201750;28;20054;-84
2022/05/23 06:49:45;;;;;;;6.10;2.17;;;22.10;99.40;;;;;;6203949;28;20046;-84
2022/05/23 06:52:47;;;;;;;4.38;1.98;;;22.20;99.10;;;;;;6204244;28;20081;-84
2022/05/23 06:55:51;;;;;;;4.82;1.70;;;22.40;98.60;;;;;;6204031;28;20042;-84
2022/05/23 06:58:52;;;;;;;2.83;1.65;;;22.50;98.20;;;;;;6199612;28;20070;-84
2022/05/23 07:01:54;;;;;;;2.70;1.52;;;22.80;97.50;;;;;;6179745;28;20082;-84
2022/05/23 07:15:01;;;;;;;3.45;1.60;;;23.80;94.20;;;;;;6177256;28;20126;-84
2022/05/23 07:18:03;;;;;;;5.43;1.52;;;25.00;93.70;;;;;;6178047;28;20057;-85
2022/05/23 07:21:07;;;;;;;3.45;1.75;;;26.70;89.20;;;;;;6176752;28;20105;-85
2022/05/23 07:24:09;;;;;;;4.03;1.90;;;27.30;81.90;;;;;;6177296;28;20050;-84
2022/05/23 07:27:12;;;;;;;1.98;1.25;;;27.10;80.40;;;;;;6175815;28;20506;-84
2022/05/23 07:30:14;;;;;;;4.97;1.88;;;26.30;84.00;;;;;;6176534;28;20053;-85
2022/05/23 07:33:16;;;;;;;1.88;1.35;;;26.30;85.80;;;;;;6179351;28;20053;-86
2022/05/23 07:36:31;;;;;;;2.45;1.65;;;26.60;84.30;;;;;;6202384;28;20061;-86
2022/05/23 07:39:34;;;;;;;4.18;2.10;;;26.00;81.60;;;;;;6200460;28;20052;-85
2022/05/23 07:42:36;;;;;;;3.25;1.80;;;25.10;85.80;;;;;;6196666;28;20133;-86
2022/05/23 07:45:38;;;;;;;3.80;1.92;;;24.50;88.70;;;;;;6197888;28;20050;-86
2022/05/23 07:48:41;;;;;;;4.28;1.75;;;24.20;90.10;;;;;;6149382;28;20200;-86
2022/05/23 07:51:44;;;;;;;4.35;1.75;;;24.80;89.10;;;;;;6201065;28;20414;-88
2022/05/23 08:01:27;;;;;;;3.65;1.65;;;28.10;79.80;;;;;;6202151;28;20054;-87
2022/05/23 08:04:30;;;;;;;5.40;1.63;;;28.20;79.30;;;;;;6185248;28;20053;-86
2022/05/23 08:07:35;;;;;;;3.65;1.83;;;28.50;79.00;;;;;;6196576;28;20051;-87
2022/05/23 08:10:38;;;;;;;4.50;1.33;;;30.20;75.70;;;;;;6200643;28;20054;-87
2022/05/23 08:13:42;;;;;;;2.95;1.50;;;32.10;71.70;;;;;;6201364;28;20421;-87
2022/05/23 08:16:44;;;;;;;2.45;1.27;;;33.60;65.00;;;;;;6201083;28;20057;-87
2022/05/23 08:19:46;;;;;;;2.47;1.33;;;34.70;61.60;;;;;;6201144;28;20057;-87
2022/05/23 08:22:54;;;;;;;5.10;1.05;;;35.70;57.40;;;;;;6201809;28;20084;-85
2022/05/23 08:25:56;;;;;;;3.45;1.13;;;36.80;52.30;;;;;;6202178;28;20050;-85
2022/05/23 08:28:58;;;;;;;3.70;1.27;;;36.70;49.90;;;;;;6201974;28;20054;-84
2022/05/23 08:32:00;;;;;;;5.05;1.33;;;36.90;49.30;;;;;;6201350;28;20080;-85
2022/05/23 08:35:01;;;;;;;3.00;1.50;;;37.90;48.80;;;;;;6200640;28;20042;-84
2022/05/23 08:38:05;;;;;;;1.80;1.15;;;38.10;46.30;;;;;;6200655;28;20046;-83
2022/05/23 08:41:18;;;;;;;3.58;1.15;;;37.80;45.60;;;;;;6201524;28;20135;-84
2022/05/23 08:44:29;;;;;;;2.33;0.90;;;37.00;46.90;;;;;;6200009;28;20042;-84
2022/05/23 08:47:35;;;;;;;3.47;1.58;;;36.80;47.80;;;;;;6200670;28;20050;-84
2022/05/23 08:50:59;;;;;;;4.28;0.98;;;37.00;46.50;;;;;;6200475;28;20049;-85
2022/05/23 08:54:11;;;;;;;2.75;1.30;;;36.30;46.30;;;;;;6200762;28;20050;-85
2022/05/23 08:57:25;;;;;;;4.13;1.65;;;34.90;48.90;;;;;;6201833;28;20402;-84
2022/05/23 09:00:31;;;;;;;3.65;1.48;;;33.90;51.70;;;;;;6199888;28;20043;-85
2022/05/23 09:03:36;;;;;;;7.50;1.88;;;33.30;52.50;;;;;;6196904;28;20056;-85
2022/05/23 09:06:44;;;;;;;2.33;1.23;;;33.30;53.60;;;;;;6198575;28;20081;-85
2022/05/23 09:09:47;;;;;;;4.70;1.67;;;34.00;53.90;;;;;;6199001;28;20053;-86
2022/05/23 09:12:52;;;;;;;3.03;1.42;;;34.00;52.90;;;;;;6201961;28;20054;-87
2022/05/23 09:15:59;;;;;;;7.25;1.35;;;34.20;54.90;;;;;;6198594;28;20050;-87
2022/05/23 09:19:04;;;;;;;9.57;1.80;;;36.00;52.10;;;;;;6199595;28;20053;-86
2022/05/23 09:22:15;;;;;;;5.03;1.42;;;37.50;47.90;;;;;;6200192;28;20058;-87
2022/05/23 09:25:20;;;;;;;4.25;1.40;;;38.50;46.80;;;;;;6199919;28;20046;-87
2022/05/23 09:28:29;;;;;;;5.57;1.80;;;38.80;43.10;;;;;;6199300;28;20030;-87
2022/05/23 09:31:44;;;;;;;2.72;1.17;;;38.00;43.10;;;;;;6199396;28;20513;-86
2022/05/23 09:34:50;;;;;;;2.83;1.30;;;37.60;44.50;;;;;;6198955;28;20129;-87
2022/05/23 09:38:12;;;;;;;6.05;1.45;;;37.50;44.10;;;;;;6198964;28;20506;-86
2022/05/23 09:48:17;;;;;;;4.72;1.80;;;36.00;44.60;;;;;;6198968;28;20116;-86
2022/05/23 09:51:18;;;;;;;2.55;1.23;;;34.80;46.80;;;;;;6198777;28;20053;-86
2022/05/23 09:54:23;;;;;;;6.53;1.08;;;34.00;48.60;;;;;;6199382;28;20148;-86
2022/05/23 09:57:29;;;;;;;5.07;1.63;;;33.30;49.00;;;;;;6199178;28;20050;-86
2022/05/23 10:00:34;;;;;;;4.05;1.50;;;32.70;51.60;;;;;;6198526;28;20054;-86
2022/05/23 10:03:47;;;;;;;3.30;1.50;;;32.30;52.30;;;;;;6201551;28;20054;-86
2022/05/23 10:06:50;;;;;;;7.13;1.90;;;31.70;53.00;;;;;;6202131;28;20068;-86
2022/05/23 10:10:00;;;;;;;5.47;1.50;;;31.00;54.00;;;;;;6198640;28;20042;-86
2022/05/23 10:13:20;;;;;;;6.43;1.90;;;30.30;56.10;;;;;;6198548;28;20054;-86
2022/05/23 10:16:27;;;;;;;3.78;2.10;;;29.60;58.30;;;;;;6199739;28;20504;-86
2022/05/23 10:19:32;;;;;;;2.95;1.95;;;28.80;61.20;;;;;;6198319;28;20046;-86
2022/05/23 10:22:33;;;;;;;3.67;2.10;;;28.10;64.50;;;;;;6198015;28;20057;-86
2022/05/23 10:25:47;;;;;;;5.57;2.20;;;27.60;66.60;;;;;;6199393;28;20042;-86
2022/05/23 10:28:56;;;;;;;6.53;2.47;;;27.10;70.40;;;;;;6198084;28;20053;-86
2022/05/23 10:32:06;;;;;;;8.25;2.97;;;26.70;73.50;;;;;;6198169;28;20520;-86
2022/05/23 10:35:17;;;;;;;6.00;2.95;;;26.30;75.50;;;;;;6197559;28;20517;-85
2022/05/23 10:45:21;;;;;;;11.18;5.15;;;24.00;90.40;;;;;;6198105;28;20054;-85
2022/05/23 10:48:41;;;;;;;10.55;5.47;;;22.70;93.90;;;;;;6198372;28;20085;-85
2022/05/23 10:51:51;;;;;;;11.05;6.43;;;21.90;95.90;;;;;;6197151;28;20532;-85
2022/05/23 10:55:05;;;;;;;8.77;5.93;;;21.40;97.20;;;;;;6198095;28;20050;-86
2022/05/23 10:58:18;;;;;;;12.50;6.15;;;21.00;98.10;;;;;;6200590;28;20038;-85
2022/05/23 11:01:41;;;;;;;12.07;6.10;;;20.80;98.90;;;;;;6202114;28;20050;-85
2022/05/23 11:04:51;;;;;;;9.02;5.88;;;20.40;99.50;;;;;;6198136;28;20093;-87
2022/05/23 11:08:09;;;;;;;10.95;6.40;;;20.00;99.90;;;;;;6197818;28;20050;-86
2022/05/23 11:11:17;;;;;;;16.87;6.27;;;19.70;99.90;;;;;;6198099;28;20181;-87
2022/05/23 11:14:28;;;;;;;10.90;6.47;;;19.50;99.90;;;;;;6188225;28;20466;-85
2022/05/23 11:17:36;;;;;;;15.95;6.28;;;19.50;99.90;;;;;;6202591;28;20058;-85
2022/05/23 11:20:39;;;;;;;12.70;6.60;;;19.60;99.90;;;;;;6204337;28;20043;-83
2022/05/23 11:23:45;;;;;;;10.75;6.90;;;19.60;99.90;;;;;;6194999;28;20046;-83
2022/05/23 11:26:51;;;;;;;6.13;4.32;;;19.70;99.90;;;;;;6206148;28;20055;-83
2022/05/23 11:37:00;;;;;;;7.88;2.63;;;20.10;99.90;;;;;;6206743;28;20043;-84
2022/05/23 11:40:06;;;;;;;14.65;2.45;;;20.10;99.90;;;;;;6205204;28;20053;-83
2022/05/23 11:43:11;;;;;;;6.72;2.90;;;20.60;99.90;;;;;;6206092;28;20046;-84
2022/05/23 11:46:15;;;;;;;11.90;3.00;;;21.10;99.90;;;;;;6206269;28;20047;-85
2022/05/23 11:49:43;;;;;;;6.00;2.65;;;21.50;99.90;;;;;;6205432;28;20046;-82
2022/05/23 11:52:49;;;;;;;5.07;2.38;;;21.90;99.90;;;;;;6205267;28;20101;-83
2022/05/23 11:56:03;;;;;;;6.68;2.10;;;22.10;99.90;;;;;;6203769;28;20110;-84
2022/05/23 11:59:06;;;;;;;9.43;2.15;;;22.30;99.90;;;;;;6207970;28;20057;-84
2022/05/23 12:02:21;;;;;;;9.93;3.08;;;22.40;99.90;;;;;;6205032;28;20066;-83
2022/05/23 12:05:33;;;;;;;8.18;2.10;;;22.40;99.90;;;;;;6205692;28;20081;-83
2022/05/23 12:08:39;;;;;;;4.72;2.13;;;22.50;99.90;;;;;;6203727;28;20209;-84
2022/05/23 12:11:42;;;;;;;4.68;2.58;;;22.50;99.90;;;;;;6203795;28;20042;-84
2022/05/23 12:14:55;;;;;;;9.95;2.30;;;22.60;99.90;;;;;;6202053;28;20396;-84
2022/05/23 12:18:01;;;;;;;10.00;2.90;;;22.60;99.90;;;;;;6239178;23;20527;-85
2022/05/23 12:21:07;;;;;;;5.57;2.45;;;22.70;99.90;;;;;;6233044;28;20136;-84
2022/05/23 12:24:26;;;;;;;5.03;2.30;;;22.60;99.90;;;;;;6235975;28;20050;-86
2022/05/23 12:27:32;;;;;;;4.90;2.50;;;22.70;99.90;;;;;;6241351;28;20050;-86
2022/05/23 12:30:37;;;;;;;9.45;2.72;;;22.70;99.90;;;;;;6235032;28;20643;-83
2022/05/23 12:33:44;;;;;;;9.70;2.88;;;23.00;99.90;;;;;;6230580;28;20096;-83
2022/05/23 12:36:51;;;;;;;5.32;2.65;;;23.10;99.90;;;;;;6230087;28;20073;-83
2022/05/23 12:40:03;;;;;;;3.90;2.00;;;23.40;99.90;;;;;;6227849;28;20049;-83
2022/05/23 12:43:16;;;;;;;8.15;2.50;;;23.60;99.40;;;;;;6228032;28;20069;-84
2022/05/23 12:46:29;;;;;;;10.80;2.75;;;23.90;99.10;;;;;;6221607;28;20046;-83
2022/05/23 12:49:42;;;;;;;10.32;2.10;;;24.30;98.30;;;;;;6228814;28;20054;-84
2022/05/23 12:53:05;;;;;;;5.07;2.35;;;24.80;97.60;;;;;;6228662;28;20046;-84
2022/05/23 12:56:28;;;;;;;3.15;2.03;;;25.30;94.70;;;;;;6228949;28;20077;-83
2022/05/23 12:59:50;;;;;;;5.75;2.30;;;25.70;95.10;;;;;;6228493;28;20073;-83
2022/05/23 13:02:59;;;;;;;5.50;1.55;;;26.30;94.20;;;;;;6218010;28;20073;-84
2022/05/23 13:06:07;;;;;;;3.95;2.20;;;26.70;93.90;;;;;;6231164;28;20053;-83
2022/05/23 13:09:15;;;;;;;9.00;1.85;;;27.20;93.00;;;;;;6235731;28;20402;-84
2022/05/23 13:12:22;;;;;;;5.07;2.00;;;27.60;91.90;;;;;;6229559;28;20181;-83
2022/05/23 13:15:27;;;;;;;10.32;2.38;;;27.90;91.20;;;;;;6226073;28;20112;-86
2022/05/23 13:22:10;;;;;;;7.15;2.25;;;28.80;90.10;;;;;;6207512;28;20104;-84
2022/05/23 13:25:14;;;;;;;6.05;2.00;;;29.20;87.80;;;;;;6225692;28;20053;-85
2022/05/23 13:28:17;;;;;;;5.55;2.00;;;29.50;86.10;;;;;;6225372;28;20053;-83
2022/05/23 13:31:25;;;;;;;8.57;2.30;;;29.60;82.40;;;;;;6221036;28;20042;-85
2022/05/23 13:34:33;;;;;;;6.10;2.22;;;29.60;83.50;;;;;;6216356;28;20576;-84
2022/05/23 13:37:35;;;;;;;;;;;29.70;82.40;;;;;;6207473;28;20053;-83
2022/05/23 13:40:45;;;;;;;17.63;3.03;;;29.90;81.50;;;;;;6204280;28;20008;-84
2022/05/23 13:43:47;;;;;;;12.00;2.17;;;29.80;80.40;;;;;;6204723;28;20046;-85
2022/05/23 13:46:52;;;;;;;6.20;1.80;;;29.70;80.30;;;;;;6224910;28;20535;-83
2022/05/23 13:49:59;;;;;;;8.27;2.25;;;29.70;82.50;;;;;;6228886;28;20568;-84
2022/05/23 13:53:06;;;;;;;9.88;2.67;;;29.60;80.70;;;;;;6229500;28;20085;-84
2022/05/23 13:56:10;;;;;;;4.38;1.50;;;29.70;81.90;;;;;;6229371;28;20046;-84
2022/05/23 13:59:17;;;;;;;7.75;1.85;;;29.70;80.00;;;;;;6224283;28;20124;-86
2022/05/23 14:02:21;;;;;;;3.65;1.33;;;29.80;78.90;;;;;;6225880;28;20080;-85
2022/05/23 14:05:26;;;;;;;3.88;1.60;;;30.00;78.60;;;;;;6231194;28;20128;-84
2022/05/23 14:08:34;;;;;;;3.42;1.60;;;30.00;76.30;;;;;;6224852;28;20128;-84
2022/05/23 14:11:40;;;;;;;7.53;1.58;;;30.10;76.90;;;;;;6225356;28;20042;-86
2022/05/23 14:14:45;;;;;;;4.85;1.92;;;30.20;76.60;;;;;;6224280;28;20076;-85
2022/05/23 14:17:49;;;;;;;6.90;1.17;;;30.40;72.70;;;;;;6223419;28;20061;-86
2022/05/23 14:20:51;;;;;;;4.70;1.00;;;30.40;71.50;;;;;;6226036;28;20100;-86
2022/05/23 14:23:54;;;;;;;4.53;1.33;;;30.40;69.50;;;;;;6228317;28;20743;-86
2022/05/23 14:27:14;;;;;;;5.72;1.40;;;30.20;69.70;;;;;;6226157;28;20508;-86
2022/05/23 14:30:29;;;;;;;9.05;1.98;;;30.00;70.90;;;;;;6224329;28;20164;-87
2022/05/23 14:33:34;;;;;;;7.25;1.60;;;29.90;71.10;;;;;;6227449;28;20074;-86
2022/05/23 14:36:37;;;;;;;2.97;1.15;;;30.00;68.60;;;;;;6227282;28;20050;-86
2022/05/23 14:39:39;;;;;;;6.00;1.63;;;29.90;66.90;;;;;;6216199;28;20113;-87
2022/05/23 14:42:49;;;;;;;5.60;1.48;;;29.90;69.10;;;;;;6232143;28;20065;-87
2022/05/23 14:45:52;;;;;;;7.22;1.70;;;29.90;67.90;;;;;;6231487;28;20054;-86
2022/05/23 14:48:58;;;;;;;8.85;1.40;;;30.10;68.00;;;;;;6234968;28;20081;-85
2022/05/23 14:52:11;;;;;;;9.30;2.05;;;30.10;66.60;;;;;;6238550;28;20042;-86
2022/05/23 14:55:21;;;;;;;4.70;1.70;;;30.20;64.60;;;;;;6237199;28;20081;-86
2022/05/23 15:32:13;;;;;;;5.90;1.30;;;30.10;64.40;;;;;;6157542;28;20035;-82
2022/05/23 15:35:26;;;;;;;4.88;1.58;;;29.90;63.60;;;;;;6154272;29;20052;-87
2022/05/23 16:27:38;;;;;;;3.33;1.35;;;26.70;75.70;;;;;;6752212;23;20120;-84
2022/05/23 17:26:04;;;;;;;5.65;1.65;;;25.80;82.90;;;;;;6199894;28;20104;-86
2022/05/23 17:29:08;;;;;;;5.82;1.00;;;25.80;82.80;;;;;;6153080;28;20524;-85
2022/05/23 17:32:10;;;;;;;7.93;1.67;;;25.90;81.80;;;;;;6158522;28;20047;-85
2022/05/23 17:35:13;;;;;;;4.88;1.25;;;25.70;79.90;;;;;;6170136;28;20509;-83
2022/05/23 17:38:15;;;;;;;3.50;1.58;;;25.70;78.10;;;;;;6178043;28;20079;-87
2022/05/23 17:41:18;;;;;;;6.53;1.08;;;25.60;75.80;;;;;;6176989;28;20043;-85
2022/05/23 17:44:21;;;;;;;6.15;1.83;;;25.40;73.30;;;;;;6176305;28;20054;-86
2022/05/23 17:50:52;;;;;;;2.45;0.85;;;25.30;68.40;;;;;;6176337;28;20055;-83
2022/05/23 17:53:54;;;;;;;10.20;1.50;;;25.30;66.30;;;;;;6178576;28;20054;-84
2022/05/23 17:56:58;;;;;;;7.03;0.75;;;25.30;65.50;;;;;;6176710;28;20188;-85
2022/05/23 18:00:00;;;;;;;3.75;0.68;;;25.20;64.00;;;;;;6175271;28;20525;-86
2022/05/23 18:03:02;;;;;;;15.45;1.35;;;25.20;64.00;;;;;;6175664;28;20525;-86
2022/05/23 18:06:04;;;;;;;3.92;0.90;;;25.10;64.30;;;;;;6176220;28;20561;-86
2022/05/23 18:09:06;;;;;;;15.60;1.35;;;25.10;65.40;;;;;;6176565;28;20047;-85
2022/05/23 18:30:57;;;;;;;0.00;0.00;;;20.40;99.90;;;;;;6144370;28;19961;-84
2022/05/23 19:21:47;;;;;;;0.00;0.00;;;19.80;98.80;;;;;;6858214;23;20581;-82
2022/05/23 20:20:13;;;;;;;4.35;1.58;;;20.10;99.40;;;;;;6172440;28;20205;-84
2022/05/23 20:23:17;;;;;;;2.17;0.95;;;20.10;99.20;;;;;;6184598;28;20145;-84
2022/05/23 20:26:28;;;;;;;3.05;1.13;;;20.10;99.50;;;;;;6184662;28;20133;-85
2022/05/23 20:29:31;;;;;;;5.88;1.65;;;20.10;99.40;;;;;;6179637;28;20039;-85
2022/05/23 20:33:03;;;;;;;2.03;1.25;;;20.10;99.70;;;;;;6180788;28;20420;-87
2022/05/23 20:40:40;;;;;;;3.03;1.10;;;20.20;99.30;;;;;;6179973;28;20034;-86
2022/05/23 20:44:28;;;;;;;3.35;1.48;;;20.20;99.00;;;;;;6175400;28;20051;-87
2022/05/23 20:47:35;;;;;;;8.38;1.00;;;20.10;99.10;;;;;;6177211;28;20055;-85
2022/05/23 20:50:46;;;;;;;3.55;1.00;;;20.20;99.10;;;;;;6178357;28;20141;-87
2022/05/23 20:53:48;;;;;;;1.33;0.68;;;20.10;99.20;;;;;;6178816;28;20047;-84
2022/05/23 20:56:50;;;;;;;4.70;1.08;;;20.20;99.30;;;;;;6181228;28;20034;-87
2022/05/23 20:59:59;;;;;;;5.88;2.10;;;20.20;98.90;;;;;;6196465;28;20047;-87
2022/05/23 21:03:02;;;;;;;3.35;1.45;;;20.20;99.20;;;;;;6177323;28;20138;-85
2022/05/23 21:06:11;;;;;;;8.20;1.00;;;20.30;98.80;;;;;;6177427;28;20150;-85
2022/05/23 21:09:13;;;;;;;3.97;1.48;;;20.40;98.80;;;;;;6176874;28;20062;-86
2022/05/23 21:12:16;;;;;;;3.58;0.80;;;20.30;99.00;;;;;;6176609;28;20502;-85
2022/05/23 21:16:10;;;;;;;2.00;1.00;;;20.40;99.10;;;;;;6182114;28;20106;-88
2022/05/23 21:19:13;;;;;;;2.00;0.70;;;20.40;99.20;;;;;;6191606;28;20513;-84
2022/05/23 21:22:17;;;;;;;6.75;0.57;;;20.50;98.30;;;;;;6181076;28;20110;-84
2022/05/23 21:29:20;;;;;;;4.13;0.57;;;20.60;97.80;;;;;;6195175;28;20023;-85
2022/05/23 21:32:42;;;;;;;0.75;0.52;;;20.50;98.00;;;;;;6191970;28;20136;-86
2022/05/23 21:35:46;;;;;;;1.65;0.60;;;20.50;97.90;;;;;;6178343;28;20054;-86
2022/05/23 21:39:40;;;;;;;4.05;0.90;;;20.40;98.20;;;;;;6177183;28;20133;-87
2022/05/23 21:49:21;;;;;;;3.50;1.15;;;20.10;99.00;;;;;;6174070;28;20054;-84
2022/05/23 21:52:38;;;;;;;5.38;1.60;;;19.70;99.80;;;;;;6178449;28;20511;-86
2022/05/23 21:55:41;;;;;;;4.20;1.35;;;19.40;99.90;;;;;;6174887;28;20145;-85